Portada
METAR-TAF:

METAR-TAF

Aeroports :

Ambon, Indonèsia

latitud: 03-42S, longitud: 128-05E, altitud: 12 m

Observació

L'informe es va fer fa 29 minuts, a les 06:30 UTC
Vent 10 kt del Nord-Oest
Temperatura 33°C
Humitat 53%
Pressió 1007 hPa
Visibilitat 10 km o més
Núvols disperses a una alçada de 1800 ft

METAR: WAPP 050630Z 32010KT 9999 SCT018 33/22 Q1007 NOSIG

Hora: 15:59 (06:59 UTC)

Pronòstic

L'informe es va fer fa 1 hora i 59 minuts, a les 05:00 UTC
Pronòstic vàlid del 05 a les 06 UTC al 06 a les 06 UTC
Vent 6 kt del Nord
Visibilitat 10 km o més
Núvols disperses a una alçada de 1800 ft
Temporalment
l' 06 a les 01 UTC al 06 a les 05 UTC
Visibilitat: 5000 m
pluja

TAF: WAPP 050500Z 0506/0606 35006KT 9999 SCT018 TEMPO 0601/0605 5000 RA

Observacions i pronòstics meteorològics de més de 4000 aeroports (METAR i TAF).

Les estacions disponibles són els punts grocs i vermells al mapa.

Posi el ratolí al punt desitjat per veure el nom de l'estació.

Feu clic per veure les observacions i els pronòstics meteorològics.

Per canviar el mapa: feu clic els botons verds amb una creu de color negre per apropar; al botó verd amb un guió per allunyar la imatge; o en les fletxes verdes per a mapes adjacents.


METAR-TAF: